Time;durP1;ratioP1;P1;durP2;ratioP2;P2;SDS_P1;SDS_P2;PMS_P1;PMS_P2;Temp;Humidity;BMP_temperature;BMP_pressure;BME280_temperature;BME280_humidity;BME280_pressure;Samples;Min_cycle;Max_cycle;Signal;HPM_P1;HPM_P2
2022/11/06 00:00:37;;;;;;;33.30;17.37;;;;;;;;;;5013272;28;20025;-80
2022/11/06 00:03:03;;;;;;;29.30;16.20;;;;;;;;;;5011502;28;20124;-81
2022/11/06 00:08:14;;;;;;;28.37;15.50;;;;;;;;;;5013318;28;20080;-81
2022/11/06 00:10:40;;;;;;;35.30;16.70;;;;;;;;;;5012151;28;20490;-80
2022/11/06 00:13:05;;;;;;;33.70;15.60;;;;;;;;;;5013109;28;20026;-79
2022/11/06 00:15:32;;;;;;;31.33;15.70;;;;;;;;;;5013832;28;20032;-80
2022/11/06 00:17:57;;;;;;;33.53;15.70;;;;;;;;;;5013267;28;20379;-79
2022/11/06 00:20:23;;;;;;;31.97;16.40;;;;;;;;;;5011537;28;20085;-79
2022/11/06 00:22:48;;;;;;;31.63;16.20;;;;;;;;;;5011482;28;20301;-80
2022/11/06 00:25:14;;;;;;;32.50;17.10;;;;;;;;;;5012260;28;20017;-80
2022/11/06 00:27:41;;;;;;;33.87;17.03;;;;;;;;;;5011981;28;20338;-79
2022/11/06 00:30:08;;;;;;;38.57;17.57;;;;;;;;;;5011778;28;20025;-80
2022/11/06 00:32:34;;;;;;;33.20;15.17;;;;;;;;;;5012055;28;20025;-81
2022/11/06 00:34:59;;;;;;;32.97;15.67;;;;;;;;;;5013245;28;20490;-80
2022/11/06 00:37:25;;;;;;;36.23;15.80;;;;;;;;;;5011827;28;20052;-81
2022/11/06 00:39:52;;;;;;;31.63;16.00;;;;;;;;;;5011842;28;20041;-79
2022/11/06 00:42:18;;;;;;;31.00;14.33;;;;;;;;;;5013184;28;20195;-79
2022/11/06 00:44:43;;;;;;;33.20;16.03;;;;;;;;;;5012786;28;20030;-81
2022/11/06 00:47:09;;;;;;;30.53;15.47;;;;;;;;;;5012610;28;20474;-80
2022/11/06 00:49:34;;;;;;;33.97;16.10;;;;;;;;;;5043615;28;20030;-79
2022/11/06 00:52:02;;;;;;;35.43;15.43;;;;;;;;;;5011991;28;20347;-80
2022/11/06 00:54:28;;;;;;;33.93;14.77;;;;;;;;;;5012474;28;20026;-79
2022/11/06 00:56:53;;;;;;;30.23;15.00;;;;;;;;;;5011529;28;20136;-80
2022/11/06 00:59:18;;;;;;;42.37;16.93;;;;;;;;;;5011178;28;20026;-79
2022/11/06 01:01:45;;;;;;;33.60;16.40;;;;;;;;;;5012239;28;20026;-81
2022/11/06 01:04:13;;;;;;;37.47;17.23;;;;;;;;;;5012170;28;20033;-78
2022/11/06 01:06:43;;;;;;;31.10;15.60;;;;;;;;;;5011975;28;20030;-79
2022/11/06 01:09:12;;;;;;;35.70;16.13;;;;;;;;;;5011128;28;20497;-80
2022/11/06 01:11:41;;;;;;;32.17;14.17;;;;;;;;;;5013136;28;20022;-78
2022/11/06 01:14:08;;;;;;;32.40;15.83;;;;;;;;;;5011906;28;20026;-79
2022/11/06 01:16:34;;;;;;;34.10;15.70;;;;;;;;;;5010052;28;20390;-79
2022/11/06 01:18:59;;;;;;;30.10;14.63;;;;;;;;;;5009694;28;20489;-81
2022/11/06 01:21:28;;;;;;;35.13;15.43;;;;;;;;;;5012956;28;20032;-79
2022/11/06 01:23:56;;;;;;;33.50;15.63;;;;;;;;;;5016376;28;20022;-80
2022/11/06 01:26:22;;;;;;;36.30;16.47;;;;;;;;;;5014940;28;20469;-79
2022/11/06 01:28:48;;;;;;;34.60;16.00;;;;;;;;;;5013975;28;20100;-80
2022/11/06 01:31:17;;;;;;;30.70;15.17;;;;;;;;;;5013445;28;20493;-80
2022/11/06 01:33:44;;;;;;;39.07;14.23;;;;;;;;;;5013188;28;20128;-78
2022/11/06 01:36:14;;;;;;;36.73;14.60;;;;;;;;;;5014722;28;20029;-80
2022/11/06 01:38:44;;;;;;;31.00;14.63;;;;;;;;;;5014313;28;20057;-80
2022/11/06 01:41:21;;;;;;;33.13;13.23;;;;;;;;;;5013669;28;20077;-79
2022/11/06 01:43:49;;;;;;;35.67;15.43;;;;;;;;;;5045814;28;20121;-80
2022/11/06 01:46:20;;;;;;;31.10;14.50;;;;;;;;;;5015115;28;20082;-81
2022/11/06 01:48:54;;;;;;;31.23;15.00;;;;;;;;;;5013431;28;20125;-80
2022/11/06 01:51:22;;;;;;;29.90;15.07;;;;;;;;;;5014610;28;20037;-80
2022/11/06 01:53:48;;;;;;;32.03;15.00;;;;;;;;;;5013941;28;20040;-79
2022/11/06 01:56:14;;;;;;;29.23;14.10;;;;;;;;;;5016040;28;20030;-77
2022/11/06 01:58:42;;;;;;;31.33;14.57;;;;;;;;;;5013518;28;20034;-80
2022/11/06 02:01:08;;;;;;;34.87;14.13;;;;;;;;;;5014568;28;20096;-79
2022/11/06 02:03:36;;;;;;;30.60;14.50;;;;;;;;;;5014695;28;20036;-80
2022/11/06 02:06:03;;;;;;;28.27;14.17;;;;;;;;;;5014877;28;20437;-80
2022/11/06 02:08:29;;;;;;;29.97;14.53;;;;;;;;;;5014339;28;20095;-79
2022/11/06 02:10:54;;;;;;;33.27;15.37;;;;;;;;;;5012904;28;20026;-80
2022/11/06 02:13:29;;;;;;;30.07;14.47;;;;;;;;;;5013373;28;20125;-79
2022/11/06 02:16:17;;;;;;;33.77;15.90;;;;;;;;;;5013296;28;20026;-79
2022/11/06 02:19:01;;;;;;;33.70;14.40;;;;;;;;;;5011512;28;20010;-80
2022/11/06 02:21:41;;;;;;;37.27;15.37;;;;;;;;;;5014422;28;20065;-79
2022/11/06 02:24:18;;;;;;;28.47;14.03;;;;;;;;;;5014098;28;20467;-80
2022/11/06 02:27:02;;;;;;;35.20;15.30;;;;;;;;;;4997939;28;20494;-80
2022/11/06 02:29:33;;;;;;;30.23;14.77;;;;;;;;;;4994275;28;20042;-79
2022/11/06 02:32:05;;;;;;;36.13;15.97;;;;;;;;;;4993655;28;20031;-81
2022/11/06 02:34:34;;;;;;;27.87;14.00;;;;;;;;;;4994940;28;20041;-79
2022/11/06 02:37:06;;;;;;;29.73;13.93;;;;;;;;;;4994347;28;20522;-80
2022/11/06 02:39:34;;;;;;;28.77;13.18;;;;;;;;;;4993788;28;20136;-80
2022/11/06 02:42:03;;;;;;;31.90;14.37;;;;;;;;;;4993921;28;20106;-80
2022/11/06 02:44:33;;;;;;;29.63;13.67;;;;;;;;;;4991936;28;20037;-78
2022/11/06 02:47:03;;;;;;;28.13;12.70;;;;;;;;;;4994334;28;20229;-80
2022/11/06 02:49:35;;;;;;;29.77;13.83;;;;;;;;;;4995259;28;20029;-81
2022/11/06 02:52:11;;;;;;;29.55;13.90;;;;;;;;;;4993313;28;20022;-80
2022/11/06 02:54:42;;;;;;;25.13;13.47;;;;;;;;;;4994027;28;20034;-81
2022/11/06 02:57:13;;;;;;;32.83;13.30;;;;;;;;;;4994344;28;20486;-80
2022/11/06 02:59:59;;;;;;;34.37;13.57;;;;;;;;;;4992969;28;20034;-81
2022/11/06 03:02:35;;;;;;;26.57;13.30;;;;;;;;;;4995122;28;20252;-80
2022/11/06 03:05:07;;;;;;;32.03;13.63;;;;;;;;;;4993338;28;20080;-80
2022/11/06 03:07:40;;;;;;;29.67;13.50;;;;;;;;;;4994207;28;20045;-78
2022/11/06 03:10:07;;;;;;;32.63;13.33;;;;;;;;;;4992325;28;20057;-78
2022/11/06 03:12:44;;;;;;;31.90;14.37;;;;;;;;;;4992225;28;20034;-80
2022/11/06 03:15:28;;;;;;;27.27;12.80;;;;;;;;;;4992154;28;20390;-80
2022/11/06 03:18:13;;;;;;;28.87;13.53;;;;;;;;;;4993261;28;20421;-79
2022/11/06 03:21:11;;;;;;;37.20;13.90;;;;;;;;;;4993506;28;20230;-81
2022/11/06 03:23:55;;;;;;;24.50;11.80;;;;;;;;;;4993842;28;20316;-80
2022/11/06 03:26:26;;;;;;;29.63;12.23;;;;;;;;;;4994233;28;20026;-80
2022/11/06 03:28:58;;;;;;;31.13;12.80;;;;;;;;;;4993997;28;20026;-81
2022/11/06 03:31:36;;;;;;;28.60;11.97;;;;;;;;;;4994684;28;20540;-80
2022/11/06 03:34:11;;;;;;;31.20;13.17;;;;;;;;;;4994257;28;20030;-80
2022/11/06 03:36:44;;;;;;;35.30;13.47;;;;;;;;;;4993826;28;20382;-81
2022/11/06 03:39:16;;;;;;;28.27;12.63;;;;;;;;;;4994142;28;20453;-80
2022/11/06 03:41:51;;;;;;;36.28;13.32;;;;;;;;;;4992618;28;20050;-80
2022/11/06 03:44:21;;;;;;;33.23;12.20;;;;;;;;;;4993946;28;20022;-81
2022/11/06 03:46:57;;;;;;;28.93;13.03;;;;;;;;;;4999840;28;20104;-80
2022/11/06 03:49:32;;;;;;;31.70;14.03;;;;;;;;;;5014616;28;20025;-80
2022/11/06 03:52:01;;;;;;;26.40;12.93;;;;;;;;;;5013345;28;20022;-81
2022/11/06 03:54:39;;;;;;;27.47;13.07;;;;;;;;;;5012823;28;20034;-80
2022/11/06 03:57:18;;;;;;;27.87;12.50;;;;;;;;;;5011850;28;20034;-80
2022/11/06 03:59:49;;;;;;;28.53;13.77;;;;;;;;;;5014250;28;20026;-78
2022/11/06 04:02:17;;;;;;;31.20;12.20;;;;;;;;;;5014402;28;20044;-82
2022/11/06 04:04:46;;;;;;;29.23;13.07;;;;;;;;;;5013560;28;20033;-79
2022/11/06 04:07:19;;;;;;;29.63;13.33;;;;;;;;;;5014462;28;20075;-80
2022/11/06 04:15:23;;;;;;;29.63;12.17;;;;;;;;;;5012979;28;20363;-80
2022/11/06 04:17:49;;;;;;;26.63;12.33;;;;;;;;;;5011103;28;20037;-80
2022/11/06 04:23:41;;;;;;;29.73;12.20;;;;;;;;;;5013853;28;20129;-80
2022/11/06 04:26:34;;;;;;;34.73;13.70;;;;;;;;;;5009172;28;20036;-80
2022/11/06 04:29:32;;;;;;;28.83;13.00;;;;;;;;;;4993536;28;20034;-81
2022/11/06 04:32:13;;;;;;;31.73;13.30;;;;;;;;;;4989956;28;20454;-80
2022/11/06 04:35:08;;;;;;;30.85;14.35;;;;;;;;;;4993376;28;20186;-79
2022/11/06 04:38:13;;;;;;;25.70;11.77;;;;;;;;;;4988368;28;20452;-79
2022/11/06 04:41:11;;;;;;;29.63;11.87;;;;;;;;;;4993818;28;20038;-80
2022/11/06 04:43:58;;;;;;;24.97;11.83;;;;;;;;;;4994341;28;20478;-80
2022/11/06 04:46:34;;;;;;;22.80;11.17;;;;;;;;;;4992870;28;20114;-81
2022/11/06 04:49:03;;;;;;;27.63;12.23;;;;;;;;;;4992228;28;20045;-80
2022/11/06 04:51:32;;;;;;;34.23;10.93;;;;;;;;;;4991232;28;20022;-80
2022/11/06 04:53:58;;;;;;;29.97;11.63;;;;;;;;;;4992755;28;20114;-79
2022/11/06 04:56:33;;;;;;;31.60;12.10;;;;;;;;;;4992633;28;20519;-79
2022/11/06 04:58:59;;;;;;;30.00;12.13;;;;;;;;;;4996489;28;20032;-80
2022/11/06 05:01:26;;;;;;;32.23;12.67;;;;;;;;;;4997512;28;20625;-82
2022/11/06 05:03:51;;;;;;;25.53;11.23;;;;;;;;;;4997963;28;20027;-80
2022/11/06 05:06:17;;;;;;;29.73;11.90;;;;;;;;;;4996784;28;20113;-80
2022/11/06 05:08:43;;;;;;;29.03;12.17;;;;;;;;;;4996118;28;20053;-81
2022/11/06 05:11:08;;;;;;;30.50;13.10;;;;;;;;;;4996425;28;20061;-81
2022/11/06 05:13:37;;;;;;;31.53;13.03;;;;;;;;;;4997079;28;20179;-81
2022/11/06 05:16:03;;;;;;;23.10;11.90;;;;;;;;;;4997375;28;20417;-81
2022/11/06 05:18:28;;;;;;;25.73;11.40;;;;;;;;;;4995884;28;20026;-81
2022/11/06 05:23:42;;;;;;;25.00;11.03;;;;;;;;;;4997433;28;20132;-80
2022/11/06 05:26:08;;;;;;;31.13;10.83;;;;;;;;;;4997363;28;20457;-80
2022/11/06 05:28:33;;;;;;;32.13;12.30;;;;;;;;;;4996126;28;20042;-80
2022/11/06 05:30:59;;;;;;;29.97;12.10;;;;;;;;;;4996531;28;20113;-80
2022/11/06 05:33:24;;;;;;;25.80;11.03;;;;;;;;;;4997410;28;20035;-80
2022/11/06 05:35:50;;;;;;;28.77;11.90;;;;;;;;;;4996861;28;20033;-81
2022/11/06 05:38:17;;;;;;;27.73;11.73;;;;;;;;;;4996797;28;20038;-79
2022/11/06 05:40:43;;;;;;;26.67;10.73;;;;;;;;;;4996100;28;20118;-80
2022/11/06 05:43:08;;;;;;;29.40;11.77;;;;;;;;;;4995404;28;20057;-79
2022/11/06 05:45:34;;;;;;;27.07;12.03;;;;;;;;;;4996678;28;20490;-80
2022/11/06 05:47:59;;;;;;;27.50;12.27;;;;;;;;;;4996855;28;20460;-79
2022/11/06 05:50:25;;;;;;;32.93;13.40;;;;;;;;;;4997573;28;20101;-80
2022/11/06 05:52:51;;;;;;;32.13;12.57;;;;;;;;;;4995232;28;20038;-79
2022/11/06 05:55:16;;;;;;;26.63;11.53;;;;;;;;;;4995088;28;20041;-80
2022/11/06 05:57:43;;;;;;;25.80;11.67;;;;;;;;;;4995228;28;20045;-80
2022/11/06 06:00:10;;;;;;;34.80;12.30;;;;;;;;;;4995190;28;20419;-79
2022/11/06 06:02:36;;;;;;;32.53;13.23;;;;;;;;;;4996046;28;20565;-81
2022/11/06 06:05:02;;;;;;;34.53;12.43;;;;;;;;;;4995395;28;20026;-78
2022/11/06 06:07:28;;;;;;;30.17;11.60;;;;;;;;;;4996653;28;20498;-79
2022/11/06 06:09:53;;;;;;;32.53;11.90;;;;;;;;;;4996833;28;20018;-79
2022/11/06 06:12:19;;;;;;;29.10;12.17;;;;;;;;;;4996260;28;20429;-79
2022/11/06 06:14:44;;;;;;;30.10;12.17;;;;;;;;;;4996509;28;20073;-78
2022/11/06 06:17:10;;;;;;;33.67;12.53;;;;;;;;;;4996335;28;20054;-80
2022/11/06 06:19:35;;;;;;;33.57;11.90;;;;;;;;;;4996028;28;20057;-80
2022/11/06 06:22:01;;;;;;;29.37;11.53;;;;;;;;;;4994835;28;20019;-79
2022/11/06 06:24:26;;;;;;;28.57;11.07;;;;;;;;;;4996861;28;20026;-80
2022/11/06 06:26:52;;;;;;;25.97;12.03;;;;;;;;;;5012183;28;20021;-80
2022/11/06 06:29:17;;;;;;;26.63;12.73;;;;;;;;;;5015926;28;20025;-79
2022/11/06 06:31:43;;;;;;;35.43;12.23;;;;;;;;;;5016151;28;20236;-79
2022/11/06 06:34:08;;;;;;;24.27;10.97;;;;;;;;;;5017269;28;20081;-79
2022/11/06 06:36:34;;;;;;;23.50;10.03;;;;;;;;;;5016109;28;20022;-80
2022/11/06 06:38:59;;;;;;;23.23;11.20;;;;;;;;;;5016000;28;20486;-78
2022/11/06 06:41:24;;;;;;;23.23;11.00;;;;;;;;;;5016018;28;20037;-80
2022/11/06 06:43:50;;;;;;;27.73;11.57;;;;;;;;;;5015554;28;20038;-80
2022/11/06 06:46:16;;;;;;;22.63;10.50;;;;;;;;;;5014969;28;20033;-80
2022/11/06 06:48:42;;;;;;;24.20;11.47;;;;;;;;;;5015914;28;20109;-81
2022/11/06 06:51:07;;;;;;;35.10;15.40;;;;;;;;;;5013583;28;20457;-80
2022/11/06 06:53:34;;;;;;;29.47;12.80;;;;;;;;;;5015352;28;20026;-80
2022/11/06 06:56:00;;;;;;;25.67;11.60;;;;;;;;;;5014268;28;20045;-81
2022/11/06 06:58:29;;;;;;;29.37;11.40;;;;;;;;;;5016084;28;20099;-80
2022/11/06 07:00:58;;;;;;;26.30;11.70;;;;;;;;;;5014031;28;20026;-81
2022/11/06 07:03:23;;;;;;;25.57;10.90;;;;;;;;;;5015496;28;20481;-79
2022/11/06 07:05:49;;;;;;;22.83;11.43;;;;;;;;;;5013974;28;20037;-79
2022/11/06 07:08:14;;;;;;;27.17;12.50;;;;;;;;;;5046718;28;20041;-82
2022/11/06 07:10:40;;;;;;;25.93;12.80;;;;;;;;;;5014931;28;20061;-80
2022/11/06 07:13:06;;;;;;;28.20;10.70;;;;;;;;;;5029254;28;20492;-80
2022/11/06 07:15:32;;;;;;;24.10;11.10;;;;;;;;;;5014440;28;20080;-78
2022/11/06 07:18:02;;;;;;;21.80;10.60;;;;;;;;;;5045696;28;20036;-79
2022/11/06 07:20:28;;;;;;;21.83;11.67;;;;;;;;;;5013971;28;20038;-78
2022/11/06 07:22:53;;;;;;;33.43;15.47;;;;;;;;;;5015102;28;20068;-80
2022/11/06 07:25:19;;;;;;;23.27;12.60;;;;;;;;;;5045690;28;20042;-81
2022/11/06 07:27:44;;;;;;;23.87;11.07;;;;;;;;;;5013886;28;20474;-78
2022/11/06 07:30:11;;;;;;;25.20;11.00;;;;;;;;;;5012888;28;20029;-79
2022/11/06 07:32:37;;;;;;;22.20;10.70;;;;;;;;;;5016033;28;20505;-80
2022/11/06 07:35:03;;;;;;;21.90;10.67;;;;;;;;;;5015449;28;20042;-80
2022/11/06 07:37:28;;;;;;;28.07;16.40;;;;;;;;;;5015615;28;20030;-80
2022/11/06 07:39:54;;;;;;;22.53;11.67;;;;;;;;;;5014755;28;20060;-80
2022/11/06 07:42:19;;;;;;;22.33;11.37;;;;;;;;;;5013694;28;20042;-81
2022/11/06 07:44:45;;;;;;;22.40;10.93;;;;;;;;;;5015470;28;20041;-80
2022/11/06 07:47:13;;;;;;;21.53;10.33;;;;;;;;;;5014599;28;20033;-79
2022/11/06 07:49:38;;;;;;;21.40;10.53;;;;;;;;;;5014644;28;20026;-80
2022/11/06 07:52:05;;;;;;;20.37;10.53;;;;;;;;;;5014239;28;20030;-80
2022/11/06 07:54:30;;;;;;;21.43;10.20;;;;;;;;;;5013079;28;20432;-81
2022/11/06 07:56:56;;;;;;;21.93;10.77;;;;;;;;;;5013108;28;20053;-80
2022/11/06 07:59:21;;;;;;;19.30;9.10;;;;;;;;;;5014363;28;20045;-80
2022/11/06 08:01:47;;;;;;;20.10;11.23;;;;;;;;;;5014137;28;20053;-80
2022/11/06 08:04:12;;;;;;;19.77;9.60;;;;;;;;;;5013763;28;20032;-80
2022/11/06 08:06:38;;;;;;;26.83;9.60;;;;;;;;;;5014255;28;20080;-80
2022/11/06 08:09:06;;;;;;;23.00;11.67;;;;;;;;;;5014484;28;20040;-80
2022/11/06 08:11:34;;;;;;;20.97;10.47;;;;;;;;;;5014085;28;20018;-80
2022/11/06 08:14:00;;;;;;;19.37;9.80;;;;;;;;;;5012440;28;20583;-82
2022/11/06 08:16:25;;;;;;;17.67;9.57;;;;;;;;;;5013312;28;20529;-81
2022/11/06 08:18:51;;;;;;;20.97;10.77;;;;;;;;;;5013775;28;20033;-83
2022/11/06 08:21:17;;;;;;;22.00;10.77;;;;;;;;;;5013578;28;20214;-80
2022/11/06 08:23:42;;;;;;;30.37;11.67;;;;;;;;;;5014077;28;20183;-78
2022/11/06 08:26:09;;;;;;;19.13;11.50;;;;;;;;;;5013829;28;20144;-80
2022/11/06 08:28:35;;;;;;;18.60;10.93;;;;;;;;;;5014117;28;20037;-81
2022/11/06 08:31:07;;;;;;;25.63;13.10;;;;;;;;;;5014786;28;20029;-81
2022/11/06 08:33:34;;;;;;;24.30;12.37;;;;;;;;;;5019422;28;20010;-82
2022/11/06 08:36:02;;;;;;;28.53;14.00;;;;;;;;;;5018292;28;20044;-79
2022/11/06 08:38:27;;;;;;;27.80;15.83;;;;;;;;;;5018107;28;20030;-80
2022/11/06 08:40:53;;;;;;;25.37;13.63;;;;;;;;;;5016937;28;20535;-80
2022/11/06 08:43:19;;;;;;;30.23;13.33;;;;;;;;;;5019952;28;20033;-81
2022/11/06 08:45:45;;;;;;;25.30;13.63;;;;;;;;;;5019054;28;20509;-80
2022/11/06 08:48:10;;;;;;;24.43;13.43;;;;;;;;;;5018786;28;20030;-80
2022/11/06 08:50:38;;;;;;;26.23;12.37;;;;;;;;;;5018339;28;20057;-81
2022/11/06 08:53:05;;;;;;;24.77;12.40;;;;;;;;;;5016306;28;20049;-80
2022/11/06 08:55:35;;;;;;;25.50;11.57;;;;;;;;;;5017610;28;20026;-81
2022/11/06 08:58:01;;;;;;;23.47;11.07;;;;;;;;;;5016583;28;20331;-81
2022/11/06 09:00:27;;;;;;;22.87;11.77;;;;;;;;;;5017822;28;20036;-80
2022/11/06 09:03:01;;;;;;;20.87;11.90;;;;;;;;;;5017778;28;20390;-80
2022/11/06 09:05:28;;;;;;;22.03;12.17;;;;;;;;;;5018870;28;20477;-81
2022/11/06 09:07:55;;;;;;;21.63;10.87;;;;;;;;;;5018193;28;20029;-81
2022/11/06 09:10:21;;;;;;;21.57;10.97;;;;;;;;;;5018037;28;20029;-81
2022/11/06 09:12:46;;;;;;;21.97;11.43;;;;;;;;;;5000392;28;20034;-82
2022/11/06 09:15:13;;;;;;;23.83;10.70;;;;;;;;;;5018107;28;20075;-81
2022/11/06 09:17:46;;;;;;;20.93;11.30;;;;;;;;;;5018021;28;20092;-79
2022/11/06 09:20:15;;;;;;;24.60;12.17;;;;;;;;;;5016651;28;20053;-80
2022/11/06 09:22:41;;;;;;;21.23;10.57;;;;;;;;;;5018298;28;20014;-80
2022/11/06 09:25:10;;;;;;;22.73;10.87;;;;;;;;;;5018148;28;20029;-81
2022/11/06 09:27:43;;;;;;;21.17;10.50;;;;;;;;;;5017281;28;20388;-80
2022/11/06 09:30:10;;;;;;;24.00;10.82;;;;;;;;;;5016524;28;20392;-80
2022/11/06 09:32:36;;;;;;;17.05;9.80;;;;;;;;;;4999139;28;20029;-82
2022/11/06 09:35:02;;;;;;;20.47;10.10;;;;;;;;;;5016027;28;20035;-81
2022/11/06 09:37:27;;;;;;;16.83;10.13;;;;;;;;;;5017659;28;20028;-80
2022/11/06 09:39:53;;;;;;;18.70;10.38;;;;;;;;;;5016173;28;20517;-79
2022/11/06 09:42:55;;;;;;;16.15;9.68;;;;;;;;;;5016762;28;20026;-81
2022/11/06 09:45:24;;;;;;;20.27;9.87;;;;;;;;;;5017072;28;20026;-79
2022/11/06 09:48:31;;;;;;;23.63;10.77;;;;;;;;;;5016674;28;20060;-80
2022/11/06 09:51:27;;;;;;;20.25;11.93;;;;;;;;;;5016922;28;20042;-81
2022/11/06 09:53:58;;;;;;;16.90;10.15;;;;;;;;;;5016708;28;20566;-80
2022/11/06 09:56:29;;;;;;;22.13;9.88;;;;;;;;;;5017355;28;20466;-79
2022/11/06 09:58:57;;;;;;;20.25;10.02;;;;;;;;;;5018521;28;20080;-81
2022/11/06 10:01:27;;;;;;;16.80;9.60;;;;;;;;;;5017194;28;20068;-78
2022/11/06 10:03:58;;;;;;;15.73;9.45;;;;;;;;;;5017034;28;20365;-80
2022/11/06 10:06:25;;;;;;;16.10;9.57;;;;;;;;;;5015197;28;20421;-80
2022/11/06 10:08:54;;;;;;;16.98;9.43;;;;;;;;;;5015152;28;20054;-81
2022/11/06 10:11:27;;;;;;;17.05;10.00;;;;;;;;;;5014951;28;20026;-80
2022/11/06 10:14:14;;;;;;;19.73;9.95;;;;;;;;;;5016506;28;20489;-81
2022/11/06 10:17:01;;;;;;;18.13;9.82;;;;;;;;;;5015876;28;20048;-79
2022/11/06 10:19:46;;;;;;;17.00;9.45;;;;;;;;;;5014620;28;20026;-80
2022/11/06 10:22:16;;;;;;;21.50;11.07;;;;;;;;;;5016055;28;20061;-80
2022/11/06 10:24:49;;;;;;;23.70;11.65;;;;;;;;;;5016902;28;20017;-81
2022/11/06 10:27:26;;;;;;;19.50;10.90;;;;;;;;;;5016933;28;20051;-82
2022/11/06 10:30:13;;;;;;;19.80;11.05;;;;;;;;;;5014821;28;20082;-82
2022/11/06 10:33:15;;;;;;;20.98;11.77;;;;;;;;;;5016345;28;20484;-82
2022/11/06 10:36:05;;;;;;;19.13;9.85;;;;;;;;;;5014567;28;20478;-80
2022/11/06 10:38:36;;;;;;;18.35;10.90;;;;;;;;;;5016229;28;20033;-82
2022/11/06 10:41:02;;;;;;;20.85;12.18;;;;;;;;;;5016065;28;20026;-81
2022/11/06 10:43:39;;;;;;;17.58;10.85;;;;;;;;;;5014568;28;20500;-80
2022/11/06 10:46:33;;;;;;;18.05;11.65;;;;;;;;;;5016186;28;20037;-81
2022/11/06 10:49:19;;;;;;;18.63;10.90;;;;;;;;;;5015166;28;20116;-82
2022/11/06 10:52:03;;;;;;;22.27;11.43;;;;;;;;;;5018821;28;20036;-81
2022/11/06 10:54:58;;;;;;;22.40;11.88;;;;;;;;;;5015739;28;20025;-80
2022/11/06 10:57:51;;;;;;;20.10;11.77;;;;;;;;;;5016125;28;20071;-80
2022/11/06 11:00:16;;;;;;;21.67;11.95;;;;;;;;;;5015634;28;20068;-80
2022/11/06 11:02:50;;;;;;;20.42;11.88;;;;;;;;;;5015662;28;20034;-81
2022/11/06 11:05:22;;;;;;;18.58;11.10;;;;;;;;;;5014775;28;20022;-79
2022/11/06 11:07:49;;;;;;;21.40;11.82;;;;;;;;;;5014448;28;20025;-80
2022/11/06 11:10:30;;;;;;;20.27;11.52;;;;;;;;;;5016000;28;20030;-80
2022/11/06 11:12:59;;;;;;;20.80;12.02;;;;;;;;;;5015851;28;20478;-81
2022/11/06 11:15:27;;;;;;;21.48;12.02;;;;;;;;;;5013208;28;20075;-81
2022/11/06 11:18:08;;;;;;;22.75;12.48;;;;;;;;;;5016169;28;20064;-80
2022/11/06 11:20:37;;;;;;;25.30;12.57;;;;;;;;;;5020421;28;20490;-81
2022/11/06 11:23:12;;;;;;;22.17;12.60;;;;;;;;;;5014653;28;20361;-82
2022/11/06 11:25:37;;;;;;;22.33;12.13;;;;;;;;;;5015439;28;20084;-81
2022/11/06 11:28:03;;;;;;;22.88;12.93;;;;;;;;;;5047312;28;20026;-80
2022/11/06 11:30:29;;;;;;;19.90;12.20;;;;;;;;;;5014404;28;20057;-80
2022/11/06 11:32:58;;;;;;;27.65;16.38;;;;;;;;;;5016558;28;20104;-81
2022/11/06 11:35:29;;;;;;;28.83;14.85;;;;;;;;;;5013928;28;20090;-80
2022/11/06 11:38:13;;;;;;;21.33;12.30;;;;;;;;;;5014330;28;20457;-80
2022/11/06 11:40:39;;;;;;;26.02;13.77;;;;;;;;;;5013857;28;20093;-82
2022/11/06 11:43:22;;;;;;;24.58;12.27;;;;;;;;;;5046872;28;20054;-81
2022/11/06 11:46:14;;;;;;;25.15;11.82;;;;;;;;;;5012820;28;20128;-80
2022/11/06 11:48:54;;;;;;;23.33;11.70;;;;;;;;;;5029888;28;20048;-80
2022/11/06 11:51:29;;;;;;;22.88;12.73;;;;;;;;;;5045020;28;20084;-80
2022/11/06 11:54:16;;;;;;;25.00;12.02;;;;;;;;;;5013147;28;20053;-81
2022/11/06 11:56:49;;;;;;;21.02;11.32;;;;;;;;;;5013527;28;20053;-81
2022/11/06 11:59:26;;;;;;;22.73;10.93;;;;;;;;;;5015196;28;20117;-80
2022/11/06 12:01:54;;;;;;;29.70;12.18;;;;;;;;;;5013673;28;20482;-80
2022/11/06 12:04:28;;;;;;;20.33;10.23;;;;;;;;;;5013638;28;20045;-80
2022/11/06 12:06:53;;;;;;;19.00;8.90;;;;;;;;;;5014962;28;20030;-81
2022/11/06 12:09:20;;;;;;;15.57;9.25;;;;;;;;;;5014014;28;20060;-80
2022/11/06 12:11:46;;;;;;;20.48;9.48;;;;;;;;;;5014051;28;20030;-79
2022/11/06 12:14:26;;;;;;;16.23;10.10;;;;;;;;;;5047246;28;20026;-81
2022/11/06 12:16:56;;;;;;;16.58;10.60;;;;;;;;;;5029286;28;20060;-79
2022/11/06 12:19:26;;;;;;;23.00;10.07;;;;;;;;;;5012050;28;20083;-80
2022/11/06 12:21:56;;;;;;;15.90;10.70;;;;;;;;;;5012814;28;20029;-81
2022/11/06 12:24:26;;;;;;;21.45;12.02;;;;;;;;;;5014894;28;20637;-82
2022/11/06 12:26:58;;;;;;;20.40;11.85;;;;;;;;;;5033524;28;20033;-81
2022/11/06 12:29:34;;;;;;;22.10;12.43;;;;;;;;;;5015194;28;20030;-81
2022/11/06 12:32:16;;;;;;;21.65;12.95;;;;;;;;;;5014861;28;20243;-81
2022/11/06 12:34:51;;;;;;;26.08;13.10;;;;;;;;;;5013871;28;20030;-80
2022/11/06 12:37:22;;;;;;;22.35;12.48;;;;;;;;;;5011894;28;20033;-80
2022/11/06 12:40:20;;;;;;;23.33;13.02;;;;;;;;;;5013714;28;20512;-80
2022/11/06 12:43:26;;;;;;;22.05;13.23;;;;;;;;;;5011526;28;20231;-81
2022/11/06 12:46:29;;;;;;;20.58;12.88;;;;;;;;;;5014231;28;20038;-82
2022/11/06 12:49:07;;;;;;;23.25;12.20;;;;;;;;;;5012425;28;20030;-81
2022/11/06 12:51:46;;;;;;;24.77;14.00;;;;;;;;;;5012280;28;20113;-81
2022/11/06 12:54:27;;;;;;;21.35;13.05;;;;;;;;;;5012357;28;20072;-81
2022/11/06 12:57:29;;;;;;;26.33;14.13;;;;;;;;;;5014004;28;20061;-81
2022/11/06 12:59:57;;;;;;;22.98;14.32;;;;;;;;;;5012414;28;20018;-80
2022/11/06 13:02:41;;;;;;;24.85;15.43;;;;;;;;;;5013642;28;20061;-81
2022/11/06 13:05:43;;;;;;;29.90;15.13;;;;;;;;;;5013108;28;20037;-82
2022/11/06 13:08:32;;;;;;;25.63;14.50;;;;;;;;;;5014095;28;20026;-80
2022/11/06 13:11:22;;;;;;;25.92;14.02;;;;;;;;;;5014017;28;20042;-81
2022/11/06 13:14:05;;;;;;;23.90;14.18;;;;;;;;;;5012105;28;20128;-80
2022/11/06 13:16:49;;;;;;;27.63;15.07;;;;;;;;;;5015156;28;20026;-80
2022/11/06 13:19:37;;;;;;;28.48;16.77;;;;;;;;;;5017118;28;20037;-80
2022/11/06 13:22:19;;;;;;;27.30;16.02;;;;;;;;;;5018061;28;20396;-80
2022/11/06 13:25:03;;;;;;;37.03;17.88;;;;;;;;;;5018374;28;20111;-80
2022/11/06 13:27:55;;;;;;;30.02;17.55;;;;;;;;;;4998005;28;20034;-80
2022/11/06 13:30:23;;;;;;;;;;;;;;;;;;4998509;28;20029;-79
2022/11/06 13:33:28;;;;;;;32.97;17.63;;;;;;;;;;4998963;28;19932;-80
2022/11/06 13:35:54;;;;;;;34.63;17.88;;;;;;;;;;4988196;28;20042;-80
2022/11/06 13:38:38;;;;;;;34.38;18.58;;;;;;;;;;4999700;28;20030;-79
2022/11/06 13:41:14;;;;;;;35.85;17.38;;;;;;;;;;4999726;28;20498;-81
2022/11/06 13:43:45;;;;;;;34.10;17.38;;;;;;;;;;4997622;28;20030;-80
2022/11/06 13:46:34;;;;;;;30.75;15.95;;;;;;;;;;4999050;28;20041;-79
2022/11/06 13:49:21;;;;;;;35.22;18.55;;;;;;;;;;4999722;28;20037;-81
2022/11/06 13:51:53;;;;;;;32.88;17.75;;;;;;;;;;4998969;28;20037;-80
2022/11/06 13:54:43;;;;;;;33.35;16.90;;;;;;;;;;5001617;28;20037;-80
2022/11/06 13:57:29;;;;;;;35.38;17.75;;;;;;;;;;5001564;28;20466;-80
2022/11/06 14:00:10;;;;;;;34.78;18.45;;;;;;;;;;5000792;28;20034;-81
2022/11/06 14:03:05;;;;;;;36.35;17.92;;;;;;;;;;5002274;28;20119;-79
2022/11/06 14:05:48;;;;;;;36.20;17.23;;;;;;;;;;5005306;28;20034;-80
2022/11/06 14:08:25;;;;;;;33.00;18.55;;;;;;;;;;5017304;28;20031;-81
2022/11/06 14:11:16;;;;;;;38.92;18.92;;;;;;;;;;5003080;28;20141;-80
2022/11/06 14:14:04;;;;;;;34.20;20.10;;;;;;;;;;5002504;28;20109;-79
2022/11/06 14:16:36;;;;;;;37.42;20.35;;;;;;;;;;5001624;28;20029;-80
2022/11/06 14:19:29;;;;;;;43.85;20.90;;;;;;;;;;5001718;28;20030;-81
2022/11/06 14:22:16;;;;;;;36.42;19.70;;;;;;;;;;5000391;28;20034;-80
2022/11/06 14:24:42;;;;;;;44.20;21.45;;;;;;;;;;5001929;28;20145;-79
2022/11/06 14:27:37;;;;;;;43.42;23.67;;;;;;;;;;5002055;28;20022;-79
2022/11/06 14:30:25;;;;;;;41.38;23.10;;;;;;;;;;5002395;28;20029;-80
2022/11/06 14:32:56;;;;;;;47.33;22.13;;;;;;;;;;4997194;28;20088;-82
2022/11/06 14:35:36;;;;;;;40.33;21.50;;;;;;;;;;4996257;28;20030;-80
2022/11/06 14:38:20;;;;;;;43.47;22.88;;;;;;;;;;4997437;28;20088;-79
2022/11/06 14:40:45;;;;;;;45.63;22.95;;;;;;;;;;4996760;28;20387;-82
2022/11/06 14:43:35;;;;;;;44.17;22.92;;;;;;;;;;4996573;28;20033;-79
2022/11/06 14:46:14;;;;;;;47.80;24.45;;;;;;;;;;4998644;28;20030;-82
2022/11/06 14:48:47;;;;;;;51.88;25.45;;;;;;;;;;4995498;28;20557;-80
2022/11/06 14:51:14;;;;;;;43.42;23.27;;;;;;;;;;4996647;28;20027;-81
2022/11/06 14:53:53;;;;;;;49.67;25.10;;;;;;;;;;4996032;28;20121;-80
2022/11/06 14:56:25;;;;;;;49.85;25.83;;;;;;;;;;4995725;28;20054;-81
2022/11/06 14:58:56;;;;;;;45.60;24.60;;;;;;;;;;4998087;28;20030;-82
2022/11/06 15:01:28;;;;;;;51.80;25.48;;;;;;;;;;4996443;28;20038;-80
2022/11/06 15:04:18;;;;;;;55.30;26.15;;;;;;;;;;4997829;28;20066;-80